createdAt,value
2019-05-16T00:00:43.074Z,9.30
2019-05-16T00:03:23.684Z,9.30
2019-05-16T00:06:04.481Z,9.30
2019-05-16T00:08:47.898Z,9.20
2019-05-16T00:11:28.395Z,9.20
2019-05-16T00:14:09.734Z,9.20
2019-05-16T00:16:51.028Z,9.20
2019-05-16T00:19:31.985Z,9.10
2019-05-16T00:22:12.601Z,9.10
2019-05-16T00:24:53.515Z,9.00
2019-05-16T00:27:34.529Z,9.00
2019-05-16T00:30:15.064Z,9.00
2019-05-16T00:32:55.713Z,8.90
2019-05-16T00:35:38.839Z,8.90
2019-05-16T00:38:19.814Z,8.90
2019-05-16T00:41:01.048Z,8.90
2019-05-16T00:43:42.612Z,8.90
2019-05-16T00:46:23.944Z,8.90
2019-05-16T00:49:04.539Z,8.90
2019-05-16T00:51:45.523Z,8.90
2019-05-16T00:54:27.825Z,9.00
2019-05-16T00:57:08.735Z,9.00
2019-05-16T00:59:50.249Z,9.00
2019-05-16T01:02:31.675Z,9.00
2019-05-16T01:05:14.588Z,9.00
2019-05-16T01:07:55.508Z,9.00
2019-05-16T01:10:36.149Z,9.00
2019-05-16T01:13:18.568Z,9.00
2019-05-16T01:15:59.659Z,9.00
2019-05-16T01:18:41.018Z,9.10
2019-05-16T01:21:22.289Z,9.10
2019-05-16T01:24:03.554Z,9.10
2019-05-16T01:26:44.208Z,9.00
2019-05-16T01:29:28.082Z,9.00
2019-05-16T01:32:08.498Z,9.00
2019-05-16T01:34:49.937Z,8.90
2019-05-16T01:37:30.692Z,8.90
2019-05-16T01:40:11.494Z,8.90
2019-05-16T01:42:52.803Z,8.90
2019-05-16T01:45:34.161Z,8.80
2019-05-16T01:48:15.753Z,8.90
2019-05-16T01:50:58.404Z,8.80
2019-05-16T01:53:39.604Z,8.80
2019-05-16T01:56:20.286Z,8.80
2019-05-16T01:59:01.628Z,8.80
2019-05-16T02:01:42.297Z,8.80
2019-05-16T02:04:23.544Z,8.80
2019-05-16T02:07:04.963Z,8.80
2019-05-16T02:09:47.560Z,8.80
2019-05-16T02:12:28.113Z,8.90
2019-05-16T02:15:09.516Z,8.90
2019-05-16T02:17:50.267Z,8.90
2019-05-16T02:20:31.032Z,9.00
2019-05-16T02:23:11.583Z,9.00
2019-05-16T02:25:52.343Z,9.00
2019-05-16T02:28:39.722Z,9.10
2019-05-16T02:31:15.828Z,9.10
2019-05-16T02:33:57.121Z,9.10
2019-05-16T02:36:40.457Z,9.20
2019-05-16T02:39:21.282Z,9.20
2019-05-16T02:42:02.180Z,9.20
2019-05-16T02:44:41.735Z,9.20
2019-05-16T02:53:33.113Z,9.20
2019-05-16T02:56:21.548Z,9.20
2019-05-16T02:58:51.987Z,9.30
2019-05-16T03:01:22.056Z,9.30
2019-05-16T03:03:51.966Z,9.40
2019-05-16T03:06:22.070Z,9.40
2019-05-16T03:08:54.087Z,9.50
2019-05-16T03:11:24.632Z,9.50
2019-05-16T03:13:54.876Z,9.50
2019-05-16T03:16:26.405Z,9.50
2019-05-16T03:18:56.245Z,9.60
2019-05-16T03:21:26.702Z,9.70
2019-05-16T03:23:56.186Z,9.70
2019-05-16T03:26:25.530Z,9.70
2019-05-16T03:28:54.888Z,9.80
2019-05-16T03:31:25.361Z,9.80
2019-05-16T03:33:59.835Z,9.80
2019-05-16T03:36:26.141Z,9.80
2019-05-16T03:38:55.616Z,9.90
2019-05-16T03:41:25.059Z,9.90
2019-05-16T03:43:54.426Z,9.90
2019-05-16T03:46:23.801Z,9.90
2019-05-16T03:48:53.101Z,9.90
2019-05-16T03:51:22.485Z,9.90
2019-05-16T03:53:51.891Z,9.90
2019-05-16T03:56:22.033Z,9.90
2019-05-16T03:58:53.383Z,9.90
2019-05-16T04:01:22.733Z,9.90
2019-05-16T04:03:52.094Z,9.90
2019-05-16T04:06:22.246Z,9.90
2019-05-16T04:08:51.711Z,9.90
2019-05-16T04:11:23.236Z,9.90
2019-05-16T04:13:52.874Z,9.90
2019-05-16T04:16:22.260Z,9.90
2019-05-16T04:18:51.709Z,10.00
2019-05-16T04:21:22.044Z,10.00
2019-05-16T04:23:51.763Z,10.00
2019-05-16T04:26:21.884Z,10.00
2019-05-16T04:28:51.835Z,10.00
2019-05-16T04:31:22.254Z,10.00
2019-05-16T04:33:52.022Z,10.10
2019-05-16T04:36:23.385Z,10.10
2019-05-16T04:38:52.776Z,10.20
2019-05-16T04:41:22.108Z,10.20
2019-05-16T04:43:51.530Z,10.20
2019-05-16T04:46:21.651Z,10.30
2019-05-16T04:48:51.258Z,10.30
2019-05-16T04:51:21.862Z,10.30
2019-05-16T04:53:51.561Z,10.20
2019-05-16T04:56:21.916Z,10.30
2019-05-16T04:58:51.800Z,10.30
2019-05-16T05:01:21.724Z,10.40
2019-05-16T05:04:01.957Z,10.40
2019-05-16T05:06:22.441Z,10.50
2019-05-16T05:08:58.464Z,10.60
2019-05-16T05:11:23.010Z,10.60
2019-05-16T05:13:52.368Z,10.70
2019-05-16T05:16:21.753Z,10.80
2019-05-16T05:18:51.654Z,10.80
2019-05-16T05:21:21.397Z,10.80
2019-05-16T05:23:51.078Z,10.80
2019-05-16T05:26:20.800Z,10.80
2019-05-16T05:28:51.418Z,10.80
2019-05-16T05:31:25.153Z,10.80
2019-05-16T05:33:51.881Z,10.70
2019-05-16T05:36:21.301Z,10.90
2019-05-16T05:39:06.269Z,11.00
2019-05-16T05:41:21.841Z,11.10
2019-05-16T05:43:54.331Z,11.30
2019-05-16T05:46:22.300Z,11.30
2019-05-16T05:48:51.676Z,11.40
2019-05-16T05:51:21.167Z,11.50
2019-05-16T05:53:51.083Z,11.50
2019-05-16T05:56:20.491Z,11.50
2019-05-16T05:58:51.197Z,11.60
2019-05-16T06:01:20.855Z,11.60
2019-05-16T06:03:50.636Z,11.60
2019-05-16T06:06:21.000Z,11.60
2019-05-16T06:08:50.720Z,11.70
2019-05-16T06:11:20.497Z,11.80
2019-05-16T06:13:50.282Z,11.80
2019-05-16T06:16:20.583Z,11.80
2019-05-16T06:18:50.410Z,11.90
2019-05-16T06:21:20.434Z,11.90
2019-05-16T06:23:51.329Z,12.00
2019-05-16T06:26:20.793Z,12.30
2019-05-16T06:28:50.604Z,12.50
2019-05-16T06:31:22.092Z,12.60
2019-05-16T06:33:51.556Z,12.90
2019-05-16T06:36:21.019Z,13.20
2019-05-16T06:38:50.428Z,13.50
2019-05-16T06:41:20.071Z,13.60
2019-05-16T06:43:50.742Z,13.60
2019-05-16T06:46:20.362Z,13.60
2019-05-16T06:48:50.587Z,13.60
2019-05-16T06:51:20.286Z,13.80
2019-05-16T06:53:51.504Z,14.20
2019-05-16T06:56:22.403Z,14.30
2019-05-16T06:58:52.279Z,14.00
2019-05-16T07:01:21.665Z,13.80
2019-05-16T07:03:51.047Z,13.60
2019-05-16T07:06:46.012Z,13.50
2019-05-16T07:08:51.588Z,13.30
2019-05-16T07:11:21.088Z,13.10
2019-05-16T07:13:51.977Z,12.90
2019-05-16T07:16:21.544Z,12.90
2019-05-16T07:18:50.926Z,12.80
2019-05-16T07:21:20.539Z,12.70
2019-05-16T07:23:51.159Z,12.80
2019-05-16T07:26:20.767Z,12.80
2019-05-16T07:28:51.583Z,12.80
2019-05-16T07:31:22.550Z,13.00
2019-05-16T07:33:52.239Z,12.80
2019-05-16T07:36:21.633Z,12.60
2019-05-16T07:38:51.157Z,12.40
2019-05-16T07:41:20.672Z,12.20
2019-05-16T07:43:50.688Z,12.10
2019-05-16T07:46:20.848Z,12.10
2019-05-16T07:48:52.570Z,12.30
2019-05-16T07:51:21.763Z,12.20
2019-05-16T07:53:51.162Z,12.30
2019-05-16T07:56:20.783Z,12.20
2019-05-16T07:58:50.768Z,12.40
2019-05-16T08:01:20.585Z,12.60
2019-05-16T08:03:50.858Z,12.70
2019-05-16T08:06:20.678Z,12.80
2019-05-16T08:08:51.064Z,12.90
2019-05-16T08:11:23.673Z,13.10
2019-05-16T08:13:51.996Z,13.20
2019-05-16T08:16:23.160Z,13.40
2019-05-16T08:18:52.584Z,13.40
2019-05-16T08:21:27.464Z,13.40
2019-05-16T08:23:54.040Z,13.30
2019-05-16T08:26:23.519Z,13.20
2019-05-16T08:28:53.086Z,13.00
2019-05-16T08:31:22.508Z,12.80
2019-05-16T08:33:54.419Z,12.90
2019-05-16T08:36:23.031Z,13.00
2019-05-16T08:38:52.368Z,13.00
2019-05-16T08:41:22.388Z,12.70
2019-05-16T08:43:53.214Z,12.80
2019-05-16T08:46:23.232Z,12.90
2019-05-16T08:48:54.255Z,12.60
2019-05-16T08:51:24.249Z,12.40
2019-05-16T08:53:53.533Z,12.40
2019-05-16T08:56:22.991Z,12.40
2019-05-16T08:58:55.051Z,12.30
2019-05-16T09:01:23.500Z,12.10
2019-05-16T09:03:52.898Z,12.00
2019-05-16T09:06:23.253Z,12.00
2019-05-16T09:08:52.857Z,12.10
2019-05-16T09:11:39.314Z,12.30
2019-05-16T09:13:53.439Z,12.40
2019-05-16T09:16:22.984Z,12.50
2019-05-16T09:18:52.405Z,12.60
2019-05-16T09:21:22.027Z,12.70
2019-05-16T09:23:51.384Z,12.90
2019-05-16T09:26:20.750Z,13.30
2019-05-16T09:28:50.066Z,13.60
2019-05-16T09:31:19.483Z,13.60
2019-05-16T09:33:48.968Z,13.90
2019-05-16T09:36:18.431Z,14.10
2019-05-16T09:38:48.710Z,14.00
2019-05-16T09:41:18.294Z,13.70
2019-05-16T09:43:52.381Z,13.60
2019-05-16T09:46:18.906Z,13.70
2019-05-16T09:48:48.367Z,13.80
2019-05-16T09:51:21.075Z,13.90
2019-05-16T09:53:48.970Z,14.20
2019-05-16T09:56:18.363Z,14.50
2019-05-16T09:58:47.756Z,15.00
2019-05-16T10:01:17.612Z,15.40
2019-05-16T10:03:47.909Z,15.80
2019-05-16T10:06:19.181Z,16.10
2019-05-16T10:08:48.804Z,16.50
2019-05-16T10:11:18.414Z,16.90
2019-05-16T10:13:47.935Z,17.10
2019-05-16T10:16:17.372Z,17.40
2019-05-16T10:18:47.618Z,18.20
2019-05-16T10:21:20.412Z,19.10
2019-05-16T10:23:48.243Z,19.60
2019-05-16T10:26:19.530Z,19.80
2019-05-16T10:28:48.685Z,19.80
2019-05-16T10:31:18.125Z,19.50
2019-05-16T10:33:47.943Z,19.10
2019-05-16T10:36:21.395Z,18.80
2019-05-16T10:38:48.797Z,18.70
2019-05-16T10:41:18.132Z,18.60
2019-05-16T10:43:47.648Z,18.30
2019-05-16T10:46:17.859Z,17.90
2019-05-16T10:48:47.345Z,17.30
2019-05-16T10:51:17.110Z,17.00
2019-05-16T10:54:07.227Z,17.10
2019-05-16T10:56:17.973Z,17.10
2019-05-16T10:59:14.726Z,17.40
2019-05-16T11:01:26.632Z,17.70
2019-05-16T11:03:49.712Z,17.90
2019-05-16T11:06:25.610Z,18.40
2019-05-16T11:08:50.548Z,18.50
2019-05-16T11:11:20.159Z,18.30
2019-05-16T11:13:51.254Z,18.20
2019-05-16T11:16:20.792Z,18.60
2019-05-16T11:18:50.310Z,19.20
2019-05-16T11:21:19.640Z,19.50
2019-05-16T11:23:49.039Z,19.30
2019-05-16T11:26:18.496Z,18.50
2019-05-16T11:28:48.896Z,17.70
2019-05-16T11:31:18.669Z,17.70
2019-05-16T11:33:48.232Z,17.80
2019-05-16T11:36:17.652Z,17.80
2019-05-16T11:38:47.665Z,18.00
2019-05-16T11:41:23.665Z,18.10
2019-05-16T11:43:53.218Z,18.40
2019-05-16T11:46:22.708Z,18.40
2019-05-16T11:48:52.092Z,17.90
2019-05-16T11:51:21.459Z,18.00
2019-05-16T11:53:50.860Z,18.30
2019-05-16T11:56:20.254Z,18.30
2019-05-16T11:58:49.842Z,18.20
2019-05-16T12:01:19.541Z,18.10
2019-05-16T12:03:48.871Z,18.60
2019-05-16T12:06:18.232Z,18.70
2019-05-16T12:08:47.630Z,18.90
2019-05-16T12:11:17.939Z,18.90
2019-05-16T12:13:47.846Z,18.50
2019-05-16T12:16:18.742Z,18.60
2019-05-16T12:18:48.696Z,18.50
2019-05-16T12:21:18.305Z,18.70
2019-05-16T12:23:49.678Z,18.70
2019-05-16T12:26:19.295Z,18.70
2019-05-16T12:28:48.761Z,18.70
2019-05-16T12:31:18.262Z,19.10
2019-05-16T12:33:48.108Z,19.00
2019-05-16T12:36:17.775Z,19.10
2019-05-16T12:38:47.348Z,19.20
2019-05-16T12:41:16.958Z,19.50
2019-05-16T12:43:53.083Z,19.60
2019-05-16T12:46:17.526Z,19.40
2019-05-16T12:48:47.419Z,19.20
2019-05-16T12:51:17.308Z,19.20
2019-05-16T12:53:47.764Z,19.00
2019-05-16T12:56:17.789Z,18.70
2019-05-16T12:58:48.298Z,18.70
2019-05-16T13:01:20.821Z,19.00
2019-05-16T13:03:50.779Z,19.40
2019-05-16T13:06:20.546Z,19.80
2019-05-16T13:08:53.273Z,19.70
2019-05-16T13:11:21.402Z,19.20
2019-05-16T13:14:03.363Z,19.00
2019-05-16T13:16:22.707Z,19.20
2019-05-16T13:18:52.191Z,18.90
2019-05-16T13:21:23.074Z,18.60
2019-05-16T13:23:52.885Z,18.50
2019-05-16T13:26:22.407Z,18.70
2019-05-16T13:28:51.960Z,18.50
2019-05-16T13:31:21.349Z,18.50
2019-05-16T13:33:50.704Z,18.20
2019-05-16T13:36:20.459Z,18.00
2019-05-16T13:38:49.834Z,18.00
2019-05-16T13:41:19.196Z,18.30
2019-05-16T13:43:48.505Z,18.60
2019-05-16T13:46:19.689Z,18.50
2019-05-16T13:48:49.035Z,18.20
2019-05-16T13:51:19.024Z,17.80
2019-05-16T13:53:48.591Z,17.70
2019-05-16T13:56:18.055Z,17.50
2019-05-16T13:58:47.625Z,17.20
2019-05-16T14:01:17.332Z,16.80
2019-05-16T14:03:48.209Z,17.10
2019-05-16T14:06:18.659Z,17.00
2019-05-16T14:08:48.246Z,16.60
2019-05-16T14:11:17.630Z,16.20
2019-05-16T14:13:47.163Z,16.10
2019-05-16T14:16:17.971Z,16.10
2019-05-16T14:18:47.576Z,16.40
2019-05-16T14:21:18.086Z,16.60
2019-05-16T14:23:53.234Z,16.80
2019-05-16T14:26:19.306Z,16.90
2019-05-16T14:28:49.283Z,16.70
2019-05-16T14:31:18.865Z,16.50
2019-05-16T14:33:49.472Z,16.50
2019-05-16T14:36:18.824Z,16.50
2019-05-16T14:38:48.323Z,16.40
2019-05-16T14:41:17.709Z,16.20
2019-05-16T14:43:47.261Z,16.00
2019-05-16T14:46:18.442Z,15.90
2019-05-16T14:48:47.755Z,15.60
2019-05-16T14:51:17.923Z,15.40
2019-05-16T14:53:47.731Z,15.20
2019-05-16T14:56:17.083Z,15.10
2019-05-16T14:58:48.500Z,15.00
2019-05-16T15:01:18.676Z,15.00
2019-05-16T15:03:48.088Z,15.00
2019-05-16T15:06:18.227Z,15.00
2019-05-16T15:08:47.855Z,14.90
2019-05-16T15:11:17.987Z,14.70
2019-05-16T15:13:47.749Z,14.60
2019-05-16T15:16:17.139Z,14.70
2019-05-16T15:18:47.402Z,14.80
2019-05-16T15:21:17.809Z,14.80
2019-05-16T15:23:47.458Z,15.00
2019-05-16T15:26:18.226Z,15.20
2019-05-16T15:28:51.245Z,15.20
2019-05-16T15:31:18.956Z,15.20
2019-05-16T15:33:49.085Z,15.10
2019-05-16T15:36:18.548Z,15.10
2019-05-16T15:38:47.909Z,14.90
2019-05-16T15:41:17.610Z,14.90
2019-05-16T15:43:47.214Z,14.70
2019-05-16T15:46:17.254Z,14.60
2019-05-16T15:48:48.719Z,14.60
2019-05-16T15:51:21.135Z,14.60
2019-05-16T15:53:49.486Z,14.70
2019-05-16T15:56:18.874Z,14.80
2019-05-16T15:58:48.230Z,14.90
2019-05-16T16:01:18.993Z,15.20
2019-05-16T16:03:48.351Z,15.30
2019-05-16T16:06:18.012Z,15.40
2019-05-16T16:08:47.797Z,15.70
2019-05-16T16:11:17.405Z,15.80
2019-05-16T16:13:48.368Z,15.90
2019-05-16T16:16:18.065Z,15.80
2019-05-16T16:18:47.435Z,15.70
2019-05-16T16:21:16.940Z,15.60
2019-05-16T16:23:47.815Z,15.40
2019-05-16T16:26:17.925Z,15.30
2019-05-16T16:28:47.627Z,15.40
2019-05-16T16:31:17.018Z,15.40
2019-05-16T16:33:46.453Z,15.30
2019-05-16T16:36:17.083Z,15.20
2019-05-16T16:38:47.647Z,15.30
2019-05-16T16:41:17.249Z,15.40
2019-05-16T16:43:47.743Z,15.50
2019-05-16T16:46:17.328Z,15.40
2019-05-16T16:48:46.705Z,15.50
2019-05-16T16:51:17.656Z,15.50
2019-05-16T16:53:47.380Z,15.60
2019-05-16T16:56:16.999Z,15.50
2019-05-16T16:58:46.803Z,15.50
2019-05-16T17:01:17.377Z,15.30
2019-05-16T17:03:47.069Z,15.00
2019-05-16T17:06:17.758Z,14.90
2019-05-16T17:08:47.620Z,14.80
2019-05-16T17:11:17.079Z,14.70
2019-05-16T17:13:47.270Z,14.50
2019-05-16T17:16:25.341Z,14.40
2019-05-16T17:18:48.017Z,14.50
2019-05-16T17:21:17.542Z,14.40
2019-05-16T17:23:46.914Z,14.20
2019-05-16T17:26:16.305Z,14.10
2019-05-16T17:28:46.723Z,14.00
2019-05-16T17:31:16.941Z,13.90
2019-05-16T17:33:46.516Z,13.80
2019-05-16T17:36:17.236Z,13.80
2019-05-16T17:38:46.838Z,13.70
2019-05-16T17:41:16.783Z,13.80
2019-05-16T17:43:46.927Z,13.90
2019-05-16T17:46:16.460Z,13.90
2019-05-16T17:48:46.793Z,13.80
2019-05-16T17:51:16.872Z,13.70
2019-05-16T17:53:46.312Z,13.70
2019-05-16T17:56:17.125Z,13.60
2019-05-16T17:58:46.851Z,13.60
2019-05-16T18:01:17.279Z,13.60
2019-05-16T18:03:46.769Z,13.50
2019-05-16T18:06:16.962Z,13.40
2019-05-16T18:08:46.921Z,13.20
2019-05-16T18:11:17.731Z,13.00
2019-05-16T18:13:47.397Z,13.00
2019-05-16T18:16:16.794Z,13.00
2019-05-16T18:18:46.867Z,13.00
2019-05-16T18:21:17.022Z,13.00
2019-05-16T18:23:47.183Z,12.90
2019-05-16T18:26:17.339Z,12.90
2019-05-16T18:28:47.071Z,12.90
2019-05-16T18:31:17.261Z,12.90
2019-05-16T18:33:49.453Z,12.90
2019-05-16T18:36:18.916Z,13.00
2019-05-16T18:38:48.534Z,13.00
2019-05-16T18:41:17.892Z,13.00
2019-05-16T18:43:47.400Z,12.90
2019-05-16T18:46:16.791Z,12.80
2019-05-16T18:48:47.180Z,12.80
2019-05-16T18:51:16.704Z,12.80
2019-05-16T18:53:46.582Z,12.70
2019-05-16T18:56:16.758Z,12.70
2019-05-16T18:58:46.748Z,12.60
2019-05-16T19:01:17.609Z,12.50
2019-05-16T19:03:49.108Z,12.50
2019-05-16T19:06:21.556Z,12.50
2019-05-16T19:08:51.417Z,12.50
2019-05-16T19:11:20.798Z,12.50
2019-05-16T19:13:50.263Z,12.50
2019-05-16T19:16:21.417Z,12.40
2019-05-16T19:18:50.779Z,12.40
2019-05-16T19:21:21.239Z,12.40
2019-05-16T19:23:50.706Z,12.40
2019-05-16T19:26:20.267Z,12.30
2019-05-16T19:28:49.645Z,12.30
2019-05-16T19:31:19.062Z,12.30
2019-05-16T19:33:48.925Z,12.20
2019-05-16T19:36:18.591Z,12.10
2019-05-16T19:38:47.905Z,12.10
2019-05-16T19:41:17.268Z,12.10
2019-05-16T19:43:46.727Z,12.10
2019-05-16T19:46:16.203Z,12.00
2019-05-16T19:48:46.552Z,12.00
2019-05-16T19:51:19.305Z,11.90
2019-05-16T19:53:48.668Z,11.80
2019-05-16T19:56:18.117Z,11.80
2019-05-16T19:58:47.768Z,11.70
2019-05-16T20:01:17.128Z,11.70
2019-05-16T20:03:47.159Z,11.60
2019-05-16T20:06:16.986Z,11.60
2019-05-16T20:08:46.430Z,11.50
2019-05-16T20:11:16.822Z,11.50
2019-05-16T20:13:47.348Z,11.50
2019-05-16T20:16:18.469Z,11.50
2019-05-16T20:18:48.370Z,11.50
2019-05-16T20:21:18.555Z,11.60
2019-05-16T20:23:48.125Z,11.60
2019-05-16T20:26:17.533Z,11.50
2019-05-16T20:28:47.559Z,11.60
2019-05-16T20:31:17.223Z,11.60
2019-05-16T20:33:46.985Z,11.50
2019-05-16T20:36:17.402Z,11.50
2019-05-16T20:38:46.923Z,11.50
2019-05-16T20:41:17.131Z,11.50
2019-05-16T20:43:47.487Z,11.50
2019-05-16T20:46:18.515Z,11.40
2019-05-16T20:48:54.136Z,11.40
2019-05-16T20:51:23.545Z,11.40
2019-05-16T20:53:52.951Z,11.40
2019-05-16T20:56:23.880Z,11.30
2019-05-16T21:02:12.462Z,11.40
2019-05-16T21:04:53.107Z,11.30
2019-05-16T21:07:33.653Z,11.20
2019-05-16T21:10:16.786Z,11.10
2019-05-16T21:12:57.597Z,11.10
2019-05-16T21:15:39.038Z,11.00
2019-05-16T21:18:19.582Z,11.00
2019-05-16T21:21:00.958Z,11.00
2019-05-16T21:23:41.682Z,10.90
2019-05-16T21:26:23.120Z,10.90
2019-05-16T21:29:04.427Z,10.80
2019-05-16T21:31:47.162Z,10.70
2019-05-16T21:34:27.375Z,10.60
2019-05-16T21:37:16.608Z,10.50
2019-05-16T21:39:51.335Z,10.50
2019-05-16T21:42:32.736Z,10.40
2019-05-16T21:45:14.288Z,10.40
2019-05-16T21:47:56.803Z,10.30
2019-05-16T21:50:38.048Z,10.30
2019-05-16T21:53:18.813Z,10.20
2019-05-16T21:55:59.484Z,10.10
2019-05-16T21:58:40.270Z,10.10
2019-05-16T22:01:20.876Z,10.00
2019-05-16T22:04:02.349Z,10.00
2019-05-16T22:06:43.830Z,10.00
2019-05-16T22:09:26.456Z,9.90
2019-05-16T22:12:06.948Z,9.80
2019-05-16T22:14:48.115Z,9.80
2019-05-16T22:17:29.422Z,9.70
2019-05-16T22:20:10.805Z,9.60
2019-05-16T22:22:51.410Z,9.50
2019-05-16T22:25:32.846Z,9.50
2019-05-16T22:28:14.157Z,9.50
2019-05-16T22:30:56.405Z,9.50
2019-05-16T22:33:37.716Z,9.50
2019-05-16T22:36:19.188Z,9.50
2019-05-16T22:38:59.870Z,9.60
2019-05-16T22:44:08.644Z,9.50
2019-05-16T22:46:48.562Z,9.60
2019-05-16T22:49:30.051Z,9.50
2019-05-16T22:52:10.864Z,9.50
2019-05-16T22:54:52.139Z,9.50
2019-05-16T22:57:32.829Z,9.50
2019-05-16T23:00:18.349Z,9.40
2019-05-16T23:02:58.953Z,9.40
2019-05-16T23:05:40.383Z,9.40
2019-05-16T23:08:21.316Z,9.50
2019-05-16T23:11:02.632Z,9.50
2019-05-16T23:13:43.251Z,9.60
2019-05-16T23:16:26.501Z,9.60
2019-05-16T23:19:06.586Z,9.70
2019-05-16T23:21:48.140Z,9.70
2019-05-16T23:24:27.560Z,9.70
2019-05-16T23:27:15.994Z,9.70
2019-05-16T23:30:07.295Z,9.70
2019-05-16T23:35:49.425Z,9.70
2019-05-16T23:38:30.508Z,9.70
2019-05-16T23:41:11.876Z,9.70
2019-05-16T23:43:53.333Z,9.70
2019-05-16T23:46:33.852Z,9.70
2019-05-16T23:49:16.654Z,9.60
2019-05-16T23:51:57.086Z,9.60
2019-05-16T23:54:38.540Z,9.50
2019-05-16T23:57:19.190Z,9.50
2019-05-16T23:59:58.673Z,9.50
